Time;durP1;ratioP1;P1;durP2;ratioP2;P2;SDS_P1;SDS_P2;PMS_P1;PMS_P2;Temp;Humidity;BMP_temperature;BMP_pressure;BME280_temperature;BME280_humidity;BME280_pressure;Samples;Min_cycle;Max_cycle;Signal;HPM_P1;HPM_P2
2022/11/05 00:10:52;;;;;;;510.97;483.10;;;8.00;37.00;;;;;;5013996;28;20494;-71
2022/11/05 00:19:05;;;;;;;681.70;640.40;;;8.00;38.30;;;;;;5014025;28;21115;-71
2022/11/05 00:26:59;;;;;;;655.13;614.33;;;8.20;38.60;;;;;;5013532;28;20532;-71
2022/11/05 00:29:24;;;;;;;661.23;622.27;;;8.30;38.00;;;;;;5003300;28;20448;-71
2022/11/05 00:31:50;;;;;;;543.80;509.77;;;8.30;38.60;;;;;;4993570;28;20217;-70
2022/11/05 00:34:15;;;;;;;739.40;692.23;;;8.40;38.30;;;;;;4993848;28;20650;-71
2022/11/05 00:36:41;;;;;;;375.17;351.13;;;8.50;39.00;;;;;;4993835;28;20190;-71
2022/11/05 00:39:06;;;;;;;338.27;316.33;;;8.50;38.10;;;;;;4993839;28;20188;-71
2022/11/05 00:41:32;;;;;;;211.17;196.47;;;8.60;36.00;;;;;;4993455;28;20225;-71
2022/11/05 00:49:28;;;;;;;714.00;670.50;;;8.60;36.00;;;;;;4971886;28;20306;-71
2022/11/05 00:49:43;;;;;;;732.43;684.97;;;8.70;36.40;;;;;;4991910;28;20427;-71
2022/11/05 00:54:53;;;;;;;603.07;564.03;;;8.90;35.00;;;;;;4993762;28;20210;-71
2022/11/05 00:57:19;;;;;;;428.90;403.30;;;8.80;35.20;;;;;;4993599;28;20421;-71
2022/11/05 00:59:44;;;;;;;341.10;318.67;;;8.80;35.00;;;;;;4993672;28;20214;-71
2022/11/05 01:02:10;;;;;;;288.33;268.37;;;8.80;35.20;;;;;;4993241;28;20199;-74
2022/11/05 01:04:35;;;;;;;612.13;573.53;;;8.90;34.90;;;;;;4993387;28;20183;-73
2022/11/05 01:07:01;;;;;;;273.00;251.67;;;8.90;34.30;;;;;;4993453;28;20215;-73
2022/11/05 01:09:26;;;;;;;703.73;659.77;;;8.90;34.20;;;;;;4993344;28;20207;-72
2022/11/05 01:11:53;;;;;;;765.50;716.20;;;9.00;34.30;;;;;;4993078;28;20200;-72
2022/11/05 01:14:19;;;;;;;669.20;628.53;;;9.00;34.20;;;;;;4991965;28;20184;-73
2022/11/05 01:16:44;;;;;;;171.23;156.83;;;9.00;33.30;;;;;;4993375;28;20417;-72
2022/11/05 01:19:11;;;;;;;739.33;692.63;;;8.90;34.10;;;;;;4993008;28;20179;-73
2022/11/05 01:21:36;;;;;;;684.97;641.63;;;9.00;33.20;;;;;;4992978;28;20204;-73
2022/11/05 01:24:02;;;;;;;470.50;439.90;;;9.10;32.50;;;;;;4992822;28;20778;-73
2022/11/05 01:26:28;;;;;;;718.37;674.50;;;9.00;32.90;;;;;;4992970;28;20289;-73
2022/11/05 01:28:55;;;;;;;511.17;476.67;;;9.10;33.00;;;;;;4992996;28;20870;-72
2022/11/05 01:31:22;;;;;;;612.40;572.60;;;9.10;32.40;;;;;;4991519;28;20623;-73
2022/11/05 01:33:48;;;;;;;491.90;460.97;;;9.00;33.00;;;;;;4992510;28;20922;-72
2022/11/05 01:36:13;;;;;;;748.37;703.07;;;9.00;32.00;;;;;;4992648;28;20418;-72
2022/11/05 01:38:39;;;;;;;252.43;233.47;;;9.10;31.90;;;;;;4992699;28;20839;-73
2022/11/05 01:41:05;;;;;;;601.83;560.67;;;9.10;32.00;;;;;;4992768;28;20210;-73
2022/11/05 01:43:49;;;;;;;699.80;654.87;;;9.10;31.80;;;;;;4992440;28;20267;-72
2022/11/05 01:46:19;;;;;;;798.57;747.67;;;9.10;32.10;;;;;;4992566;28;20414;-72
2022/11/05 01:48:48;;;;;;;780.43;730.93;;;9.10;32.50;;;;;;4992619;28;20426;-72
2022/11/05 01:51:17;;;;;;;773.30;725.20;;;9.10;31.50;;;;;;4992559;28;20448;-73
2022/11/05 01:53:50;;;;;;;493.30;462.47;;;9.20;31.20;;;;;;4991990;28;20416;-72
2022/11/05 01:56:25;;;;;;;704.20;657.27;;;9.10;31.80;;;;;;4992733;28;20426;-72
2022/11/05 01:59:08;;;;;;;461.17;430.20;;;9.10;31.10;;;;;;4992539;28;20469;-72
2022/11/05 02:01:34;;;;;;;388.10;363.20;;;9.00;31.60;;;;;;4992587;28;20485;-72
2022/11/05 02:04:04;;;;;;;374.83;350.83;;;8.90;31.70;;;;;;4992209;28;20546;-73
2022/11/05 02:06:33;;;;;;;551.33;517.40;;;8.80;33.40;;;;;;4992375;28;20214;-72
2022/11/05 02:09:05;;;;;;;570.57;534.50;;;8.90;32.20;;;;;;4992488;28;20469;-71
2022/11/05 02:11:31;;;;;;;525.30;490.30;;;9.00;32.80;;;;;;4992341;28;20853;-73
2022/11/05 02:13:57;;;;;;;692.17;647.37;;;9.00;32.50;;;;;;4992184;28;20510;-72
2022/11/05 02:16:42;;;;;;;736.00;689.07;;;9.10;32.40;;;;;;4995023;28;20611;-72
2022/11/05 02:19:45;;;;;;;688.10;647.10;;;9.10;32.10;;;;;;5012016;28;20487;-72
2022/11/05 02:22:47;;;;;;;735.47;690.27;;;9.20;32.00;;;;;;5011584;28;20431;-73
2022/11/05 02:25:58;;;;;;;117.47;106.53;;;9.10;31.80;;;;;;5011899;28;20414;-72
2022/11/05 02:28:40;;;;;;;550.70;515.70;;;9.10;31.10;;;;;;5011545;28;20473;-73
2022/11/05 02:31:26;;;;;;;575.67;540.07;;;9.10;31.20;;;;;;5011799;28;20442;-73
2022/11/05 02:34:25;;;;;;;408.00;380.63;;;9.00;32.40;;;;;;5011590;28;20904;-72
2022/11/05 02:37:10;;;;;;;713.33;670.93;;;9.20;32.00;;;;;;5011344;28;20808;-73
2022/11/05 02:40:04;;;;;;;677.03;634.30;;;9.20;31.90;;;;;;5011808;28;20437;-73
2022/11/05 02:42:31;;;;;;;429.57;401.30;;;9.10;31.20;;;;;;5000214;28;20470;-73
2022/11/05 02:45:04;;;;;;;476.87;447.43;;;9.00;32.50;;;;;;5005155;28;20575;-73
2022/11/05 02:47:42;;;;;;;522.60;489.37;;;9.00;32.50;;;;;;5011698;28;20462;-72
2022/11/05 02:50:36;;;;;;;485.67;456.33;;;9.10;32.60;;;;;;5011714;28;20504;-73
2022/11/05 02:53:21;;;;;;;607.63;567.40;;;9.10;32.40;;;;;;5011323;28;20417;-73
2022/11/05 02:56:15;;;;;;;766.20;718.33;;;9.10;32.20;;;;;;5011359;28;20505;-73
2022/11/05 02:58:41;;;;;;;492.77;462.20;;;9.10;32.50;;;;;;4992226;28;20435;-73
2022/11/05 03:01:10;;;;;;;502.23;472.70;;;9.10;32.50;;;;;;4991877;28;20489;-72
2022/11/05 03:03:49;;;;;;;572.93;540.30;;;9.10;32.60;;;;;;4991680;28;20194;-72
2022/11/05 03:06:32;;;;;;;732.20;684.43;;;9.10;32.30;;;;;;4992848;28;20782;-73
2022/11/05 03:09:16;;;;;;;429.93;401.60;;;9.00;32.60;;;;;;4995491;28;20426;-73
2022/11/05 03:12:09;;;;;;;741.67;695.77;;;9.10;32.50;;;;;;4995248;28;20458;-72
2022/11/05 03:14:37;;;;;;;644.87;604.77;;;9.10;33.10;;;;;;4995403;28;20410;-72
2022/11/05 03:17:40;;;;;;;437.47;407.47;;;9.00;33.30;;;;;;4993878;28;20430;-73
2022/11/05 03:20:18;;;;;;;684.03;641.87;;;9.10;33.30;;;;;;4995257;28;20486;-73
2022/11/05 03:22:57;;;;;;;769.80;721.43;;;9.20;32.40;;;;;;4993702;28;20450;-72
2022/11/05 03:25:27;;;;;;;744.17;697.33;;;9.00;33.00;;;;;;4995102;28;20434;-72
2022/11/05 03:27:57;;;;;;;731.37;684.17;;;9.20;33.30;;;;;;4995448;28;20460;-72
2022/11/05 03:30:24;;;;;;;728.70;682.93;;;9.10;33.30;;;;;;4995521;28;20462;-72
2022/11/05 03:32:58;;;;;;;649.40;610.40;;;9.20;33.40;;;;;;4995450;28;20876;-72
2022/11/05 03:35:29;;;;;;;633.70;592.30;;;9.20;32.90;;;;;;4995601;28;20413;-74
2022/11/05 03:38:00;;;;;;;720.67;675.47;;;9.20;32.50;;;;;;4998259;28;20418;-72
2022/11/05 03:40:30;;;;;;;654.30;611.63;;;9.20;33.60;;;;;;5015176;28;20436;-72
2022/11/05 03:42:57;;;;;;;778.60;728.50;;;9.20;32.00;;;;;;5040693;23;20540;-75
2022/11/05 03:45:49;;;;;;;637.50;595.83;;;9.20;33.30;;;;;;5019511;28;20437;-75
2022/11/05 03:48:17;;;;;;;574.70;537.93;;;9.30;32.90;;;;;;5021239;28;20474;-75
2022/11/05 03:50:55;;;;;;;824.43;770.33;;;9.30;32.90;;;;;;5021757;28;20411;-77
2022/11/05 03:53:28;;;;;;;725.20;677.80;;;9.20;33.10;;;;;;5003147;28;20482;-75
2022/11/05 03:55:58;;;;;;;737.53;690.17;;;9.10;33.60;;;;;;5002216;28;20429;-75
2022/11/05 03:58:24;;;;;;;767.33;717.87;;;9.10;33.10;;;;;;5002342;28;20435;-74
2022/11/05 04:00:50;;;;;;;673.97;630.83;;;9.20;33.00;;;;;;5002417;28;20411;-75
2022/11/05 04:03:16;;;;;;;380.03;354.87;;;9.10;33.20;;;;;;5000340;28;20852;-76
2022/11/05 04:05:42;;;;;;;689.13;644.40;;;8.90;34.60;;;;;;4999788;28;20444;-74
2022/11/05 04:13:36;;;;;;;347.90;325.20;;;8.90;35.80;;;;;;4999979;28;20425;-74
2022/11/05 04:18:46;;;;;;;453.90;424.77;;;9.00;35.50;;;;;;5000672;28;20186;-75
2022/11/05 04:24:08;;;;;;;766.03;716.30;;;9.00;36.30;;;;;;5001307;28;20209;-73
2022/11/05 04:26:46;;;;;;;685.17;641.37;;;9.00;35.80;;;;;;4998167;28;20459;-72
2022/11/05 04:31:56;;;;;;;524.60;493.13;;;8.90;36.20;;;;;;4997852;28;20496;-73
2022/11/05 04:34:22;;;;;;;680.30;637.07;;;8.90;37.70;;;;;;4997282;28;20434;-73
2022/11/05 04:36:52;;;;;;;613.33;574.80;;;9.00;36.60;;;;;;4998243;28;20498;-73
2022/11/05 04:39:18;;;;;;;444.17;415.40;;;9.10;35.30;;;;;;4997118;28;20423;-73
2022/11/05 04:41:47;;;;;;;641.47;598.73;;;9.20;34.50;;;;;;4996801;28;20461;-72
2022/11/05 04:44:13;;;;;;;728.23;681.17;;;9.20;34.20;;;;;;4997296;28;20745;-73
2022/11/05 04:46:39;;;;;;;501.13;469.43;;;9.10;35.50;;;;;;4998164;28;21038;-72
2022/11/05 04:49:04;;;;;;;748.17;699.80;;;9.20;34.90;;;;;;4998762;28;20427;-73
2022/11/05 04:51:30;;;;;;;656.47;613.97;;;9.30;34.30;;;;;;4997531;28;20200;-74
2022/11/05 04:53:55;;;;;;;673.00;632.10;;;9.20;34.40;;;;;;4995563;28;20199;-74
2022/11/05 04:56:23;;;;;;;512.83;479.93;;;9.20;35.60;;;;;;4997686;28;20178;-72
2022/11/05 04:58:49;;;;;;;707.77;661.50;;;9.20;35.10;;;;;;4999465;28;20219;-75
2022/11/05 05:01:20;;;;;;;622.17;579.53;;;9.20;35.10;;;;;;5001498;28;20450;-73
2022/11/05 05:03:47;;;;;;;558.80;523.30;;;9.20;35.40;;;;;;5012305;28;20426;-74
2022/11/05 05:06:12;;;;;;;495.97;462.97;;;9.00;35.50;;;;;;5021049;28;20509;-74
2022/11/05 05:08:38;;;;;;;576.27;541.83;;;8.90;36.20;;;;;;5019629;28;21004;-74
2022/11/05 05:11:06;;;;;;;744.73;697.73;;;8.90;36.60;;;;;;5020541;28;20249;-74
2022/11/05 05:13:32;;;;;;;449.40;420.37;;;9.00;36.30;;;;;;5019829;28;20179;-74
2022/11/05 05:15:58;;;;;;;479.80;450.23;;;9.00;36.30;;;;;;5019068;28;20496;-74
2022/11/05 05:18:27;;;;;;;516.17;482.30;;;8.90;36.10;;;;;;5018322;28;20427;-74
2022/11/05 05:23:42;;;;;;;473.43;442.40;;;8.90;36.50;;;;;;5016190;28;20428;-73
2022/11/05 05:26:07;;;;;;;566.60;531.13;;;8.80;36.90;;;;;;5017644;28;20981;-74
2022/11/05 05:28:33;;;;;;;465.90;435.40;;;8.70;37.90;;;;;;5017099;28;20663;-74
2022/11/05 05:30:59;;;;;;;505.60;473.50;;;8.60;38.50;;;;;;5018359;28;20177;-74
2022/11/05 05:33:31;;;;;;;694.00;649.93;;;8.60;38.20;;;;;;5017513;28;20289;-74
2022/11/05 05:35:57;;;;;;;541.67;508.60;;;8.60;37.20;;;;;;5019486;28;20441;-75
2022/11/05 05:38:23;;;;;;;365.00;341.03;;;8.60;37.60;;;;;;5020844;28;20413;-74
2022/11/05 05:40:50;;;;;;;606.67;568.80;;;8.70;38.30;;;;;;5020966;28;20473;-74
2022/11/05 05:43:16;;;;;;;534.50;500.77;;;8.70;37.10;;;;;;5019639;28;20218;-73
2022/11/05 05:45:41;;;;;;;727.70;682.33;;;8.70;37.90;;;;;;5021232;28;20443;-74
2022/11/05 05:48:07;;;;;;;533.87;498.20;;;8.70;38.00;;;;;;5020900;28;20465;-74
2022/11/05 05:50:33;;;;;;;707.00;662.67;;;8.70;37.90;;;;;;5021047;28;20418;-74
2022/11/05 05:52:59;;;;;;;637.50;595.20;;;8.70;38.40;;;;;;5021756;28;20194;-74
2022/11/05 05:55:24;;;;;;;530.40;497.47;;;8.70;39.10;;;;;;5022114;28;20422;-74
2022/11/05 05:57:50;;;;;;;647.80;608.73;;;8.70;38.50;;;;;;5020304;28;20258;-74
2022/11/05 06:00:16;;;;;;;673.60;633.27;;;8.60;39.10;;;;;;5022719;28;20182;-74
2022/11/05 06:02:41;;;;;;;745.47;699.63;;;8.70;39.60;;;;;;5023775;28;20217;-75
2022/11/05 06:05:07;;;;;;;661.00;622.07;;;8.70;39.00;;;;;;5021553;28;20160;-75
2022/11/05 06:07:33;;;;;;;383.00;358.40;;;8.80;39.20;;;;;;5019658;28;20534;-75
2022/11/05 06:09:58;;;;;;;467.23;438.23;;;8.80;39.20;;;;;;5019941;28;20411;-75
2022/11/05 06:12:24;;;;;;;419.37;391.43;;;8.70;39.60;;;;;;5009105;28;20211;-76
2022/11/05 06:14:49;;;;;;;638.17;602.00;;;8.80;40.00;;;;;;5015102;28;20208;-76
2022/11/05 06:17:15;;;;;;;646.53;605.13;;;8.80;39.30;;;;;;5019951;28;20174;-76
2022/11/05 06:19:41;;;;;;;623.47;584.70;;;8.90;39.60;;;;;;5020379;28;20183;-74
2022/11/05 06:22:06;;;;;;;675.80;633.40;;;9.00;38.90;;;;;;5019514;28;20271;-77
2022/11/05 06:24:32;;;;;;;676.93;633.40;;;9.00;38.50;;;;;;5020846;28;20639;-75
2022/11/05 06:26:57;;;;;;;723.67;677.10;;;9.00;39.10;;;;;;5019844;28;20214;-74
2022/11/05 06:29:23;;;;;;;497.87;469.23;;;9.10;39.00;;;;;;5020185;28;20183;-75
2022/11/05 06:31:48;;;;;;;443.27;413.57;;;9.00;38.70;;;;;;5019677;28;20644;-75
2022/11/05 06:34:14;;;;;;;333.23;310.13;;;9.00;39.30;;;;;;5017112;28;20650;-75
2022/11/05 06:36:39;;;;;;;592.17;553.40;;;8.90;39.70;;;;;;5015483;28;20191;-75
2022/11/05 06:39:10;;;;;;;566.00;531.23;;;8.90;39.10;;;;;;5017429;28;20599;-75
2022/11/05 06:41:35;;;;;;;737.47;691.40;;;8.90;39.60;;;;;;4996320;28;20219;-71
2022/11/05 06:44:01;;;;;;;603.10;563.40;;;8.90;39.50;;;;;;4998106;28;20419;-73
2022/11/05 06:46:26;;;;;;;742.00;694.73;;;9.00;40.30;;;;;;4997206;28;20223;-73
2022/11/05 06:48:52;;;;;;;759.43;708.77;;;9.10;39.30;;;;;;4998836;28;20176;-72
2022/11/05 06:51:18;;;;;;;685.63;640.33;;;9.00;39.20;;;;;;4999135;28;20185;-72
2022/11/05 06:53:43;;;;;;;690.20;646.63;;;9.10;39.20;;;;;;4998059;28;20319;-72
2022/11/05 06:56:09;;;;;;;818.80;764.33;;;8.90;38.80;;;;;;4997544;28;20321;-73
2022/11/05 06:58:35;;;;;;;644.43;601.40;;;9.10;39.80;;;;;;4999651;28;20330;-73
2022/11/05 07:01:07;;;;;;;755.73;707.47;;;9.20;38.30;;;;;;4998130;28;20595;-72
2022/11/05 07:03:33;;;;;;;684.13;640.90;;;9.40;36.60;;;;;;4997032;28;20176;-73
2022/11/05 07:05:59;;;;;;;592.00;552.37;;;9.40;37.20;;;;;;4997651;28;20449;-73
2022/11/05 07:08:29;;;;;;;751.57;702.00;;;9.50;35.80;;;;;;4995854;28;20466;-73
2022/11/05 07:10:55;;;;;;;752.40;704.80;;;9.60;34.90;;;;;;4995772;28;20430;-73
2022/11/05 07:13:20;;;;;;;434.10;404.80;;;9.60;34.70;;;;;;4996019;28;20435;-73
2022/11/05 07:15:46;;;;;;;713.57;663.67;;;9.70;33.80;;;;;;4996607;28;20176;-72
2022/11/05 07:18:12;;;;;;;296.50;276.17;;;9.60;34.10;;;;;;4996822;28;20195;-73
2022/11/05 07:20:37;;;;;;;757.97;706.60;;;9.60;32.90;;;;;;4997024;28;20188;-73
2022/11/05 07:23:09;;;;;;;550.07;513.83;;;9.60;32.80;;;;;;4996635;28;20554;-72
2022/11/05 07:25:35;;;;;;;533.70;496.93;;;9.40;33.70;;;;;;4997882;28;20190;-73
2022/11/05 07:28:01;;;;;;;636.60;594.93;;;9.40;34.20;;;;;;4996387;28;20987;-76
2022/11/05 07:30:27;;;;;;;691.97;645.43;;;9.50;33.40;;;;;;4998886;28;20203;-74
2022/11/05 07:32:54;;;;;;;742.83;695.23;;;9.60;33.40;;;;;;4995436;28;20498;-72
2022/11/05 07:35:20;;;;;;;742.90;694.63;;;9.70;33.40;;;;;;4995389;28;20419;-72
2022/11/05 07:37:48;;;;;;;217.30;199.33;;;9.80;32.90;;;;;;4994947;28;20440;-73
2022/11/05 07:40:17;;;;;;;786.57;736.20;;;9.80;31.70;;;;;;4994852;28;20420;-71
2022/11/05 07:42:44;;;;;;;702.13;655.70;;;9.80;31.70;;;;;;4990879;28;20486;-73
2022/11/05 07:45:10;;;;;;;419.50;391.33;;;9.80;31.70;;;;;;4990799;28;20427;-73
2022/11/05 07:47:47;;;;;;;672.03;628.23;;;9.90;31.80;;;;;;4999688;28;20474;-70
2022/11/05 07:50:13;;;;;;;697.73;651.57;;;9.90;31.50;;;;;;5010305;28;20966;-71
2022/11/05 07:52:39;;;;;;;428.00;397.30;;;9.90;31.80;;;;;;5010008;28;21014;-72
2022/11/05 07:55:05;;;;;;;493.00;460.60;;;10.00;31.00;;;;;;5010183;28;20448;-72
2022/11/05 07:57:30;;;;;;;380.47;352.90;;;10.30;29.40;;;;;;5010263;28;20656;-69
2022/11/05 07:59:56;;;;;;;647.30;602.93;;;10.30;29.40;;;;;;5010603;28;20554;-73
2022/11/05 08:02:21;;;;;;;320.73;298.47;;;10.40;28.40;;;;;;5009241;28;20208;-71
2022/11/05 08:04:47;;;;;;;403.23;376.33;;;10.50;27.90;;;;;;5006075;28;20207;-69
2022/11/05 08:07:13;;;;;;;326.07;303.13;;;10.40;27.90;;;;;;4999711;28;20252;-73
2022/11/05 08:09:38;;;;;;;655.60;612.23;;;10.70;27.90;;;;;;4990132;28;20562;-75
2022/11/05 08:12:04;;;;;;;765.60;717.47;;;10.70;26.90;;;;;;4990525;28;20291;-72
2022/11/05 08:14:30;;;;;;;479.33;448.93;;;10.80;28.00;;;;;;4990758;28;20670;-73
2022/11/05 08:16:57;;;;;;;528.93;493.03;;;10.80;27.30;;;;;;4990639;28;20439;-74
2022/11/05 08:19:23;;;;;;;515.37;481.27;;;10.60;27.10;;;;;;5019610;28;20561;-72
2022/11/05 08:21:48;;;;;;;482.77;452.80;;;10.40;27.00;;;;;;5029022;28;20448;-73
2022/11/05 08:24:14;;;;;;;395.10;369.00;;;10.20;27.90;;;;;;5029413;28;20199;-74
2022/11/05 08:26:39;;;;;;;465.90;435.80;;;10.00;28.90;;;;;;5030573;28;20466;-71
2022/11/05 08:29:05;;;;;;;618.33;579.20;;;9.80;30.50;;;;;;5028393;28;20220;-72
2022/11/05 08:31:30;;;;;;;741.20;695.70;;;9.80;32.50;;;;;;5022872;28;20230;-71
2022/11/05 08:33:56;;;;;;;538.43;502.87;;;9.90;31.80;;;;;;4994284;28;20196;-72
2022/11/05 08:36:22;;;;;;;603.57;567.17;;;9.80;29.80;;;;;;4990366;28;20609;-72
2022/11/05 08:38:47;;;;;;;720.23;675.43;;;9.80;30.20;;;;;;4998484;28;20549;-73
2022/11/05 08:41:13;;;;;;;501.70;468.57;;;9.70;30.10;;;;;;5010502;28;20184;-70
2022/11/05 08:43:38;;;;;;;202.73;187.03;;;9.60;30.10;;;;;;5009171;28;20203;-72
2022/11/05 08:46:04;;;;;;;730.50;684.57;;;9.70;30.60;;;;;;5005524;28;20207;-74
2022/11/05 08:48:29;;;;;;;553.13;517.00;;;9.80;30.40;;;;;;5001870;28;20242;-72
2022/11/05 08:50:55;;;;;;;750.47;702.67;;;9.70;31.00;;;;;;5008833;28;20198;-72
2022/11/05 08:53:20;;;;;;;546.23;514.03;;;9.80;31.70;;;;;;5010553;28;20561;-73
2022/11/05 08:55:48;;;;;;;498.40;466.47;;;9.80;32.30;;;;;;5009428;28;20256;-71
2022/11/05 08:58:15;;;;;;;731.77;682.87;;;10.00;30.90;;;;;;4992551;28;20419;-72
2022/11/05 09:00:46;;;;;;;572.03;536.27;;;10.10;31.00;;;;;;4993049;28;20431;-70
2022/11/05 09:03:13;;;;;;;647.17;604.30;;;10.40;30.00;;;;;;4989850;28;20471;-69
2022/11/05 09:05:41;;;;;;;785.80;735.43;;;10.50;29.20;;;;;;4993333;28;20989;-74
2022/11/05 09:08:09;;;;;;;485.10;451.73;;;10.70;28.00;;;;;;4993511;28;20833;-73
2022/11/05 09:10:35;;;;;;;204.17;187.53;;;10.80;27.50;;;;;;4993343;28;20511;-73
2022/11/05 09:13:01;;;;;;;95.73;85.27;;;10.70;27.20;;;;;;4993031;28;20526;-73
2022/11/05 09:15:27;;;;;;;440.20;410.93;;;10.70;27.20;;;;;;4993200;28;20181;-73
2022/11/05 09:17:54;;;;;;;477.93;446.50;;;10.70;26.90;;;;;;4993009;28;20428;-72
2022/11/05 09:20:19;;;;;;;490.50;459.40;;;10.50;27.10;;;;;;4992995;28;20801;-73
2022/11/05 09:22:45;;;;;;;250.07;230.50;;;10.20;27.40;;;;;;4992507;28;20511;-73
2022/11/05 09:25:11;;;;;;;459.60;428.07;;;10.30;26.90;;;;;;4993068;28;20689;-73
2022/11/05 09:27:37;;;;;;;699.60;654.57;;;10.30;26.10;;;;;;4992944;28;20463;-72
2022/11/05 09:30:03;;;;;;;584.50;547.90;;;10.20;26.90;;;;;;4992740;28;20425;-72
2022/11/05 09:32:32;;;;;;;361.47;338.23;;;10.20;26.90;;;;;;4992553;28;20211;-72
2022/11/05 09:34:59;;;;;;;775.97;725.50;;;10.10;27.60;;;;;;4991490;28;20922;-72
2022/11/05 09:37:26;;;;;;;564.73;530.07;;;10.00;28.30;;;;;;4992825;28;20503;-72
2022/11/05 09:39:52;;;;;;;510.17;477.10;;;9.90;30.20;;;;;;4992719;28;20458;-73
2022/11/05 09:42:19;;;;;;;583.03;548.20;;;9.80;29.30;;;;;;5023419;23;20502;-70
2022/11/05 09:44:50;;;;;;;612.70;574.20;;;9.70;29.90;;;;;;5012112;28;20430;-71
2022/11/05 09:47:45;;;;;;;654.77;612.53;;;9.50;29.40;;;;;;5012110;28;21014;-71
2022/11/05 09:50:16;;;;;;;289.30;268.30;;;9.50;30.00;;;;;;5012152;28;20427;-70
2022/11/05 09:52:41;;;;;;;485.87;456.57;;;9.60;31.20;;;;;;5011876;28;20525;-70
2022/11/05 09:55:23;;;;;;;747.87;701.57;;;9.60;29.70;;;;;;5012888;28;20846;-70
2022/11/05 09:57:57;;;;;;;405.60;377.17;;;9.90;30.60;;;;;;5012455;28;20183;-71
2022/11/05 10:00:23;;;;;;;634.13;593.93;;;10.00;28.00;;;;;;5012538;28;20457;-71
2022/11/05 10:03:03;;;;;;;388.57;361.90;;;10.30;28.80;;;;;;5012113;28;20436;-71
2022/11/05 10:05:31;;;;;;;577.13;538.47;;;10.60;26.10;;;;;;5012631;28;20223;-71
2022/11/05 10:08:02;;;;;;;647.10;605.60;;;10.90;25.60;;;;;;5012257;28;20468;-71
2022/11/05 10:10:31;;;;;;;603.73;563.37;;;11.20;26.10;;;;;;5012221;28;20411;-71
2022/11/05 10:13:03;;;;;;;624.70;580.90;;;11.40;23.80;;;;;;5010758;28;20501;-71
2022/11/05 10:15:33;;;;;;;623.60;580.17;;;11.60;23.60;;;;;;5012297;28;20418;-71
2022/11/05 10:18:04;;;;;;;538.13;500.07;;;11.60;23.70;;;;;;5016160;28;20487;-71
2022/11/05 10:20:33;;;;;;;489.67;456.53;;;11.80;21.70;;;;;;5015992;28;20864;-71
2022/11/05 10:23:20;;;;;;;491.23;456.03;;;11.30;21.40;;;;;;5015732;28;20446;-71
2022/11/05 10:25:49;;;;;;;419.63;390.17;;;11.10;22.20;;;;;;5015948;28;20432;-71
2022/11/05 10:28:18;;;;;;;311.97;289.53;;;11.20;21.60;;;;;;5016007;28;20529;-71
2022/11/05 10:30:50;;;;;;;310.73;287.83;;;11.40;21.10;;;;;;5015863;28;20418;-71
2022/11/05 10:33:26;;;;;;;373.73;346.10;;;11.90;20.60;;;;;;5015310;28;21028;-70
2022/11/05 10:35:56;;;;;;;448.80;414.90;;;12.10;19.80;;;;;;5015718;28;20435;-70
2022/11/05 10:38:21;;;;;;;462.17;427.37;;;12.20;19.90;;;;;;5015727;28;20416;-71
2022/11/05 10:41:10;;;;;;;541.40;503.03;;;12.40;18.40;;;;;;5015674;28;20826;-71
2022/11/05 10:43:47;;;;;;;554.30;515.60;;;12.30;20.00;;;;;;5014102;28;20259;-70
2022/11/05 10:46:33;;;;;;;515.87;480.37;;;12.60;17.40;;;;;;5015826;28;20441;-71
2022/11/05 10:49:05;;;;;;;146.53;132.47;;;12.80;17.70;;;;;;5015702;28;20449;-71
2022/11/05 10:51:32;;;;;;;442.13;409.97;;;13.20;17.50;;;;;;5016226;28;20418;-70
2022/11/05 10:54:08;;;;;;;491.50;454.07;;;13.10;17.10;;;;;;5015983;28;20421;-71
2022/11/05 11:13:18;;;;;;;723.50;671.70;;;12.80;17.30;;;;;;5129754;27;20579;-73
2022/11/05 11:15:44;;;;;;;625.60;581.17;;;12.40;15.80;;;;;;5130284;27;20401;-74
2022/11/05 11:18:37;;;;;;;674.10;625.77;;;12.10;16.20;;;;;;5129226;28;20436;-74
2022/11/05 11:21:25;;;;;;;638.20;595.07;;;12.10;16.10;;;;;;5129833;27;20662;-72
2022/11/05 11:24:01;;;;;;;560.40;522.30;;;12.00;17.20;;;;;;5109083;28;20935;-72
2022/11/05 11:26:34;;;;;;;453.50;421.10;;;12.00;18.10;;;;;;5109227;28;20397;-71
2022/11/05 11:29:20;;;;;;;533.50;497.47;;;11.90;17.70;;;;;;5109596;28;20406;-71
2022/11/05 11:31:45;;;;;;;511.97;478.87;;;12.00;17.40;;;;;;5109156;28;20410;-71
2022/11/05 11:34:15;;;;;;;537.23;498.47;;;12.20;18.00;;;;;;5109002;28;20489;-71
2022/11/05 11:36:52;;;;;;;620.50;576.73;;;12.40;16.10;;;;;;5109267;28;20169;-70
2022/11/05 11:39:25;;;;;;;572.23;532.87;;;12.50;15.80;;;;;;5108103;28;21031;-73
2022/11/05 11:41:59;;;;;;;217.20;199.87;;;12.70;15.90;;;;;;5091211;28;20984;-71
2022/11/05 11:44:33;;;;;;;383.87;356.57;;;12.60;15.80;;;;;;5108933;28;20426;-72
2022/11/05 11:47:03;;;;;;;701.17;652.40;;;12.80;15.00;;;;;;5108812;28;20408;-71
2022/11/05 11:49:41;;;;;;;170.67;156.40;;;12.80;13.90;;;;;;5109071;28;20434;-72
2022/11/05 11:52:17;;;;;;;266.20;245.83;;;12.90;14.50;;;;;;5108561;28;20436;-69
2022/11/05 11:54:43;;;;;;;417.13;385.83;;;12.80;15.30;;;;;;5108697;28;20779;-71
2022/11/05 11:57:28;;;;;;;613.63;571.63;;;12.90;14.70;;;;;;5112300;28;20479;-70
2022/11/05 11:59:55;;;;;;;234.43;215.83;;;12.60;13.70;;;;;;5122909;28;20685;-70
2022/11/05 12:02:52;;;;;;;352.90;327.60;;;12.30;14.40;;;;;;5125286;27;20492;-71
2022/11/05 12:05:36;;;;;;;519.67;484.70;;;12.10;14.80;;;;;;5108613;28;20403;-70
2022/11/05 12:08:31;;;;;;;484.80;451.67;;;11.60;15.90;;;;;;5108401;28;20403;-70
2022/11/05 12:11:02;;;;;;;354.20;329.03;;;11.50;17.00;;;;;;5108422;28;20511;-70
2022/11/05 12:13:46;;;;;;;612.63;571.10;;;11.20;17.70;;;;;;5097919;28;20493;-70
2022/11/05 12:16:28;;;;;;;495.53;462.90;;;11.10;18.40;;;;;;5094830;28;20415;-70
2022/11/05 12:19:23;;;;;;;374.47;348.50;;;10.60;21.70;;;;;;5094703;28;20415;-70
2022/11/05 12:22:07;;;;;;;645.53;604.83;;;10.40;22.90;;;;;;5104434;28;20422;-70
2022/11/05 12:24:50;;;;;;;364.30;340.23;;;10.30;24.30;;;;;;5114956;28;20801;-69
2022/11/05 12:27:34;;;;;;;585.03;547.17;;;10.30;24.90;;;;;;5115098;28;20418;-70
2022/11/05 12:30:18;;;;;;;516.33;483.80;;;10.30;23.40;;;;;;5113257;28;20423;-71
2022/11/05 12:33:04;;;;;;;587.30;551.80;;;10.10;24.10;;;;;;5113056;28;20500;-69
2022/11/05 12:35:52;;;;;;;514.97;483.37;;;10.10;24.40;;;;;;5114728;27;20481;-69
2022/11/05 12:39:05;;;;;;;547.83;514.40;;;10.10;24.60;;;;;;5114158;28;20440;-70
2022/11/05 12:42:10;;;;;;;417.53;391.70;;;10.50;24.70;;;;;;5112409;28;20507;-69
2022/11/05 12:45:09;;;;;;;640.30;601.60;;;10.70;24.60;;;;;;5114570;28;20423;-69
2022/11/05 12:47:58;;;;;;;530.47;496.33;;;10.90;23.20;;;;;;5113969;28;20403;-70
2022/11/05 12:50:40;;;;;;;612.20;574.63;;;11.00;23.30;;;;;;5098757;28;20509;-70
2022/11/05 12:53:37;;;;;;;520.60;486.53;;;11.10;23.30;;;;;;5114372;28;20766;-70
2022/11/05 12:56:24;;;;;;;663.17;620.50;;;11.10;23.30;;;;;;5114519;28;20399;-70
2022/11/05 12:58:59;;;;;;;591.70;555.17;;;11.30;22.50;;;;;;5109149;28;20427;-70
2022/11/05 13:01:38;;;;;;;510.70;479.03;;;11.40;22.70;;;;;;5094134;28;20423;-70
2022/11/05 13:04:22;;;;;;;310.10;288.63;;;11.40;22.30;;;;;;5092454;28;20439;-70
2022/11/05 13:06:51;;;;;;;612.20;572.63;;;11.30;22.10;;;;;;5093856;28;20827;-69
2022/11/05 13:09:40;;;;;;;374.57;347.53;;;11.10;23.10;;;;;;5102446;28;20414;-69
2022/11/05 13:12:11;;;;;;;259.70;239.87;;;11.10;23.20;;;;;;5100909;28;20473;-70
2022/11/05 13:14:52;;;;;;;381.57;355.27;;;10.90;23.40;;;;;;5114194;28;20413;-69
2022/11/05 13:17:22;;;;;;;398.27;371.10;;;10.80;23.10;;;;;;5113886;28;20399;-69
2022/11/05 13:19:58;;;;;;;535.67;502.10;;;10.90;24.50;;;;;;5112268;28;20415;-69
2022/11/05 13:22:36;;;;;;;545.63;509.93;;;10.80;24.40;;;;;;5113495;27;20416;-69
2022/11/05 13:25:20;;;;;;;614.27;576.20;;;10.90;25.50;;;;;;5112829;28;20408;-69
2022/11/05 13:28:23;;;;;;;526.37;492.40;;;11.00;24.30;;;;;;5097217;28;20419;-70
2022/11/05 13:30:52;;;;;;;407.10;379.57;;;11.00;23.30;;;;;;5093239;28;20454;-69
2022/11/05 13:33:22;;;;;;;628.47;586.07;;;11.30;23.50;;;;;;5091711;28;20782;-70
2022/11/05 13:39:12;;;;;;;562.97;526.20;;;11.70;23.10;;;;;;5093199;28;20406;-69